createdAt,value
2018-07-28T00:01:45.361Z,59.36
2018-07-28T00:04:14.696Z,59.40
2018-07-28T00:06:44.414Z,59.41
2018-07-28T00:09:14.153Z,59.01
2018-07-28T00:11:43.410Z,59.11
2018-07-28T00:14:13.016Z,59.37
2018-07-28T00:16:43.019Z,59.56
2018-07-28T00:19:12.578Z,59.14
2018-07-28T00:21:42.321Z,59.33
2018-07-28T00:24:11.597Z,59.51
2018-07-28T00:26:40.900Z,59.57
2018-07-28T00:29:10.498Z,59.53
2018-07-28T00:31:40.835Z,59.92
2018-07-28T00:34:10.104Z,59.83
2018-07-28T00:36:39.427Z,59.88
2018-07-28T00:39:12.756Z,59.55
2018-07-28T00:41:42.125Z,59.91
2018-07-28T00:44:11.347Z,60.99
2018-07-28T00:46:40.596Z,61.04
2018-07-28T00:49:10.204Z,60.95
2018-07-28T00:51:39.750Z,61.04
2018-07-28T00:54:09.044Z,61.21
2018-07-28T00:56:38.299Z,60.96
2018-07-28T00:59:08.113Z,61.00
2018-07-28T01:01:37.370Z,61.34
2018-07-28T01:04:06.649Z,61.10
2018-07-28T01:06:35.901Z,61.38
2018-07-28T01:09:08.291Z,61.49
2018-07-28T01:11:38.260Z,61.10
2018-07-28T01:14:07.657Z,61.44
2018-07-28T01:16:36.959Z,61.73
2018-07-28T01:19:06.266Z,62.17
2018-07-28T01:21:36.320Z,62.23
2018-07-28T01:24:06.346Z,62.98
2018-07-28T01:26:35.589Z,63.37
2018-07-28T01:29:10.405Z,63.75
2018-07-28T01:31:39.646Z,64.00
2018-07-28T01:34:08.926Z,64.02
2018-07-28T01:36:38.419Z,64.68
2018-07-28T01:39:12.656Z,64.45
2018-07-28T01:41:43.255Z,64.03
2018-07-28T01:44:12.818Z,64.28
2018-07-28T01:46:42.883Z,63.72
2018-07-28T01:49:12.125Z,63.95
2018-07-28T01:51:41.407Z,63.92
2018-07-28T01:54:11.083Z,63.73
2018-07-28T01:56:40.347Z,63.64
2018-07-28T01:59:10.019Z,63.45
2018-07-28T02:01:39.718Z,63.43
2018-07-28T02:04:09.376Z,63.98
2018-07-28T02:06:38.627Z,64.08
2018-07-28T02:09:10.467Z,63.99
2018-07-28T02:11:39.887Z,63.83
2018-07-28T02:14:09.988Z,64.28
2018-07-28T02:16:39.250Z,64.74
2018-07-28T02:19:09.288Z,64.71
2018-07-28T02:21:38.555Z,64.54
2018-07-28T02:24:08.163Z,64.56
2018-07-28T02:26:39.315Z,64.62
2018-07-28T02:29:09.794Z,64.80
2018-07-28T02:31:39.035Z,64.79
2018-07-28T02:34:08.812Z,64.81
2018-07-28T02:36:38.861Z,64.78
2018-07-28T02:39:10.489Z,64.26
2018-07-28T02:41:39.946Z,64.37
2018-07-28T02:44:09.871Z,63.88
2018-07-28T02:46:39.734Z,64.20
2018-07-28T02:49:09.351Z,64.30
2018-07-28T02:51:38.592Z,64.24
2018-07-28T02:54:07.902Z,64.11
2018-07-28T02:56:37.476Z,64.88
2018-07-28T02:59:06.786Z,64.30
2018-07-28T03:01:36.851Z,64.65
2018-07-28T03:04:06.309Z,64.63
2018-07-28T03:06:35.574Z,64.13
2018-07-28T03:09:08.578Z,64.54
2018-07-28T03:11:38.363Z,64.31
2018-07-28T03:14:08.026Z,64.38
2018-07-28T03:16:37.344Z,64.52
2018-07-28T03:19:06.812Z,64.35
2018-07-28T03:21:36.686Z,64.06
2018-07-28T03:24:06.082Z,64.37
2018-07-28T03:26:35.701Z,64.00
2018-07-28T03:29:04.938Z,64.24
2018-07-28T03:31:34.684Z,64.07
2018-07-28T03:34:03.942Z,64.39
2018-07-28T03:36:33.261Z,64.54
2018-07-28T03:39:02.923Z,64.22
2018-07-28T03:41:32.631Z,63.93
2018-07-28T03:44:01.903Z,63.71
2018-07-28T03:46:31.162Z,63.58
2018-07-28T03:49:00.795Z,62.89
2018-07-28T03:51:30.210Z,63.25
2018-07-28T03:53:59.448Z,62.75
2018-07-28T03:56:29.075Z,62.46
2018-07-28T03:58:58.319Z,62.51
2018-07-28T04:01:28.015Z,62.52
2018-07-28T04:03:57.523Z,62.59
2018-07-28T04:06:27.679Z,62.39
2018-07-28T04:08:56.943Z,62.15
2018-07-28T04:11:26.190Z,61.95
2018-07-28T04:13:55.968Z,61.60
2018-07-28T04:16:25.663Z,62.13
2018-07-28T04:18:55.057Z,61.44
2018-07-28T04:21:24.314Z,61.63
2018-07-28T04:23:54.443Z,61.13
2018-07-28T04:26:23.680Z,61.17
2018-07-28T04:28:52.959Z,61.04
2018-07-28T04:31:22.576Z,60.89
2018-07-28T04:33:51.590Z,60.89
2018-07-28T04:36:20.851Z,60.45
2018-07-28T04:38:50.389Z,60.04
2018-07-28T04:41:19.951Z,59.88
2018-07-28T04:43:49.982Z,60.09
2018-07-28T04:46:19.220Z,59.64
2018-07-28T04:48:48.529Z,59.08
2018-07-28T04:51:17.844Z,59.28
2018-07-28T04:53:47.429Z,58.78
2018-07-28T04:56:16.692Z,58.04
2018-07-28T04:58:46.044Z,57.87
2018-07-28T05:01:15.343Z,57.80
2018-07-28T05:03:44.607Z,57.20
2018-07-28T05:06:13.946Z,57.56
2018-07-28T05:08:43.220Z,56.88
2018-07-28T05:11:12.884Z,57.02
2018-07-28T05:13:42.838Z,56.96
2018-07-28T05:16:12.117Z,56.19
2018-07-28T05:18:41.724Z,56.32
2018-07-28T05:21:11.004Z,56.19
2018-07-28T05:23:40.505Z,55.83
2018-07-28T05:26:10.269Z,55.57
2018-07-28T05:28:39.604Z,54.92
2018-07-28T05:31:08.866Z,54.96
2018-07-28T05:33:38.207Z,54.73
2018-07-28T05:36:07.528Z,54.27
2018-07-28T05:38:36.829Z,54.54
2018-07-28T05:41:06.108Z,54.06
2018-07-28T05:43:35.423Z,53.85
2018-07-28T05:46:04.719Z,53.75
2018-07-28T05:48:34.284Z,53.18
2018-07-28T05:51:03.565Z,52.39
2018-07-28T05:53:32.867Z,51.41
2018-07-28T05:56:02.160Z,50.43
2018-07-28T05:58:31.824Z,49.69
2018-07-28T06:01:01.291Z,49.14
2018-07-28T06:03:30.582Z,47.23
2018-07-28T06:05:59.851Z,40.78
2018-07-28T06:08:29.071Z,34.49
2018-07-28T06:10:58.331Z,31.68
2018-07-28T06:13:27.660Z,29.58
2018-07-28T06:15:56.946Z,29.27
2018-07-28T06:18:26.177Z,28.27
2018-07-28T06:20:55.443Z,28.31
2018-07-28T06:23:24.740Z,27.39
2018-07-28T06:25:54.027Z,26.32
2018-07-28T06:28:29.527Z,26.62
2018-07-28T06:30:59.040Z,25.31
2018-07-28T06:33:28.282Z,26.00
2018-07-28T06:35:57.572Z,25.75
2018-07-28T06:38:27.233Z,25.57
2018-07-28T06:40:56.494Z,26.10
2018-07-28T06:43:26.208Z,28.25
2018-07-28T06:45:55.479Z,32.95
2018-07-28T06:48:24.689Z,35.95
2018-07-28T06:50:53.931Z,37.19
2018-07-28T06:53:23.199Z,38.28
2018-07-28T06:55:52.458Z,40.86
2018-07-28T06:58:21.971Z,40.62
2018-07-28T07:00:51.264Z,41.35
2018-07-28T07:03:20.951Z,41.51
2018-07-28T07:05:50.241Z,41.31
2018-07-28T07:08:19.531Z,41.94
2018-07-28T07:10:48.828Z,42.52
2018-07-28T07:13:18.063Z,42.01
2018-07-28T07:15:47.314Z,41.46
2018-07-28T07:18:16.604Z,41.67
2018-07-28T07:20:45.834Z,41.59
2018-07-28T07:23:15.090Z,41.09
2018-07-28T07:25:44.618Z,41.14
2018-07-28T07:28:14.267Z,40.48
2018-07-28T07:30:44.044Z,41.19
2018-07-28T07:33:13.413Z,40.81
2018-07-28T07:35:43.086Z,40.32
2018-07-28T07:38:12.456Z,40.13
2018-07-28T07:40:42.181Z,40.09
2018-07-28T07:43:11.914Z,39.91
2018-07-28T07:45:41.189Z,39.65
2018-07-28T07:48:10.775Z,39.55
2018-07-28T07:50:39.997Z,39.11
2018-07-28T07:53:09.135Z,39.11
2018-07-28T07:55:38.422Z,38.56
2018-07-28T07:58:07.712Z,39.12
2018-07-28T08:00:37.554Z,39.02
2018-07-28T08:03:07.077Z,38.54
2018-07-28T08:05:36.318Z,38.59
2018-07-28T08:08:05.666Z,38.51
2018-07-28T08:10:34.939Z,38.22
2018-07-28T08:13:04.174Z,38.31
2018-07-28T08:15:33.874Z,37.64
2018-07-28T08:18:03.161Z,37.33
2018-07-28T08:20:32.519Z,37.62
2018-07-28T08:23:05.557Z,37.71
2018-07-28T08:25:34.819Z,37.36
2018-07-28T08:28:04.130Z,36.56
2018-07-28T08:30:33.732Z,37.19
2018-07-28T08:33:04.411Z,37.27
2018-07-28T08:35:34.058Z,36.35
2018-07-28T08:38:04.317Z,36.15
2018-07-28T08:40:33.567Z,36.50
2018-07-28T08:43:03.276Z,35.54
2018-07-28T08:45:32.506Z,35.79
2018-07-28T08:48:02.137Z,34.87
2018-07-28T08:50:31.445Z,34.58
2018-07-28T08:53:00.688Z,34.73
2018-07-28T08:55:30.750Z,33.70
2018-07-28T08:58:00.206Z,33.94
2018-07-28T09:00:29.431Z,33.00
2018-07-28T09:02:58.724Z,33.63
2018-07-28T09:05:28.303Z,32.17
2018-07-28T09:07:57.870Z,29.09
2018-07-28T09:10:27.119Z,26.61
2018-07-28T09:12:56.726Z,25.60
2018-07-28T09:15:26.444Z,23.82
2018-07-28T09:17:55.799Z,23.19
2018-07-28T09:20:25.468Z,22.96
2018-07-28T09:22:54.590Z,22.56
2018-07-28T09:25:23.851Z,22.76
2018-07-28T09:27:52.875Z,22.59
2018-07-28T09:30:22.160Z,21.86
2018-07-28T09:32:51.747Z,21.91
2018-07-28T09:35:22.065Z,21.81
2018-07-28T09:37:51.545Z,21.81
2018-07-28T09:40:22.238Z,21.48
2018-07-28T09:42:51.469Z,21.80
2018-07-28T09:45:20.724Z,21.94
2018-07-28T09:47:50.675Z,22.67
2018-07-28T09:50:20.145Z,21.60
2018-07-28T09:52:50.547Z,21.78
2018-07-28T09:55:20.312Z,21.89
2018-07-28T09:57:49.571Z,21.63
2018-07-28T10:00:24.226Z,22.57
2018-07-28T10:02:53.962Z,21.97
2018-07-28T10:05:23.219Z,21.97
2018-07-28T10:07:52.580Z,21.95
2018-07-28T10:10:21.829Z,22.24
2018-07-28T10:12:51.360Z,21.99
2018-07-28T10:15:20.659Z,21.79
2018-07-28T10:17:49.917Z,22.32
2018-07-28T10:20:19.010Z,22.83
2018-07-28T10:22:48.151Z,23.42
2018-07-28T10:25:17.892Z,22.54
2018-07-28T10:27:47.163Z,22.81
2018-07-28T10:30:16.474Z,22.64
2018-07-28T10:32:46.217Z,24.93
2018-07-28T10:35:15.523Z,25.44
2018-07-28T10:37:45.246Z,27.25
2018-07-28T10:40:15.175Z,27.73
2018-07-28T10:42:44.498Z,28.18
2018-07-28T10:45:13.730Z,29.43
2018-07-28T10:47:43.028Z,28.92
2018-07-28T10:50:12.301Z,29.62
2018-07-28T10:52:41.531Z,29.63
2018-07-28T10:55:10.856Z,29.24
2018-07-28T10:57:40.120Z,29.70
2018-07-28T11:00:10.711Z,29.22
2018-07-28T11:02:40.236Z,29.22
2018-07-28T11:05:09.522Z,29.60
2018-07-28T11:07:39.293Z,28.73
2018-07-28T11:10:09.242Z,28.37
2018-07-28T11:12:38.498Z,28.98
2018-07-28T11:15:09.151Z,28.37
2018-07-28T11:17:38.733Z,27.90
2018-07-28T11:20:10.156Z,27.63
2018-07-28T11:22:39.764Z,27.81
2018-07-28T11:25:09.689Z,27.02
2018-07-28T11:27:39.181Z,27.43
2018-07-28T11:30:09.488Z,27.05
2018-07-28T11:32:56.025Z,26.96
2018-07-28T11:35:42.474Z,26.24
2018-07-28T11:38:33.854Z,25.40
2018-07-28T11:41:20.299Z,25.47
2018-07-28T11:44:06.937Z,24.99
2018-07-28T11:46:36.178Z,25.55
2018-07-28T11:49:05.518Z,26.31
2018-07-28T11:51:34.780Z,25.93
2018-07-28T11:54:04.048Z,25.33
2018-07-28T11:56:33.384Z,26.41
2018-07-28T11:59:02.632Z,27.28
2018-07-28T12:01:32.371Z,26.37
2018-07-28T12:04:01.942Z,26.68
2018-07-28T12:06:31.198Z,26.11
2018-07-28T12:09:00.863Z,26.16
2018-07-28T12:11:30.213Z,25.96
2018-07-28T12:13:59.492Z,26.00
2018-07-28T12:16:28.854Z,25.92
2018-07-28T12:18:58.127Z,26.42
2018-07-28T12:21:28.172Z,26.90
2018-07-28T12:23:57.427Z,27.28
2018-07-28T12:26:26.771Z,27.18
2018-07-28T12:28:56.028Z,27.34
2018-07-28T12:31:25.361Z,27.41
2018-07-28T12:33:54.788Z,26.81
2018-07-28T12:36:24.035Z,26.29
2018-07-28T12:38:53.671Z,26.37
2018-07-28T12:41:23.733Z,25.25
2018-07-28T12:43:53.447Z,24.92
2018-07-28T12:46:22.679Z,25.48
2018-07-28T12:48:51.979Z,25.91
2018-07-28T12:51:21.307Z,25.58
2018-07-28T12:53:50.556Z,24.67
2018-07-28T12:56:20.340Z,25.42
2018-07-28T12:58:49.546Z,24.63
2018-07-28T13:01:19.216Z,23.76
2018-07-28T13:03:48.495Z,24.38
2018-07-28T13:06:18.140Z,24.47
2018-07-28T13:08:47.391Z,24.60
2018-07-28T13:11:17.042Z,24.34
2018-07-28T13:13:46.331Z,23.50
2018-07-28T13:16:15.599Z,22.92
2018-07-28T13:18:45.249Z,23.11
2018-07-28T13:21:14.450Z,23.20
2018-07-28T13:23:44.561Z,23.39
2018-07-28T13:26:13.671Z,23.71
2018-07-28T13:28:43.358Z,23.03
2018-07-28T13:31:12.575Z,22.72
2018-07-28T13:33:41.806Z,22.22
2018-07-28T13:36:11.120Z,22.79
2018-07-28T13:38:40.404Z,22.60
2018-07-28T13:41:09.665Z,22.01
2018-07-28T13:43:38.992Z,22.50
2018-07-28T13:46:08.263Z,23.05
2018-07-28T13:48:37.551Z,22.59
2018-07-28T13:51:06.754Z,22.97
2018-07-28T13:53:35.974Z,22.96
2018-07-28T13:56:05.455Z,23.50
2018-07-28T13:58:34.755Z,24.16
2018-07-28T14:01:03.999Z,24.78
2018-07-28T14:03:33.505Z,24.92
2018-07-28T14:06:02.890Z,24.67
2018-07-28T14:08:32.215Z,24.36
2018-07-28T14:11:01.788Z,24.38
2018-07-28T14:13:31.092Z,25.00
2018-07-28T14:16:00.654Z,24.76
2018-07-28T14:18:30.518Z,25.79
2018-07-28T14:20:59.908Z,25.72
2018-07-28T14:23:29.627Z,28.45
2018-07-28T14:25:59.466Z,30.82
2018-07-28T14:28:29.148Z,31.78
2018-07-28T14:30:58.401Z,32.85
2018-07-28T14:33:27.665Z,35.13
2018-07-28T14:35:56.936Z,35.17
2018-07-28T14:38:26.224Z,36.95
2018-07-28T14:40:55.451Z,39.41
2018-07-28T14:43:24.733Z,41.95
2018-07-28T14:45:53.957Z,43.59
2018-07-28T14:48:23.573Z,45.30
2018-07-28T14:50:53.598Z,46.96
2018-07-28T14:53:23.046Z,48.43
2018-07-28T14:55:52.364Z,48.53
2018-07-28T14:58:21.982Z,50.16
2018-07-28T15:00:51.244Z,52.76
2018-07-28T15:03:21.801Z,55.46
2018-07-28T15:05:51.012Z,57.38
2018-07-28T15:11:20.227Z,64.45
2018-07-28T15:13:49.495Z,65.00
2018-07-28T15:16:18.775Z,65.89
2018-07-28T15:18:48.136Z,65.88
2018-07-28T15:21:17.665Z,67.91
2018-07-28T15:23:47.155Z,66.99
2018-07-28T15:26:17.180Z,68.14
2018-07-28T15:28:46.843Z,67.54
2018-07-28T15:31:16.903Z,67.36
2018-07-28T15:33:46.332Z,68.46
2018-07-28T15:36:15.626Z,67.34
2018-07-28T15:38:45.116Z,67.19
2018-07-28T15:41:14.840Z,67.25
2018-07-28T15:43:44.161Z,66.74
2018-07-28T15:46:13.443Z,67.52
2018-07-28T15:48:42.678Z,67.77
2018-07-28T15:51:12.564Z,66.09
2018-07-28T15:53:41.834Z,65.24
2018-07-28T15:56:11.611Z,66.47
2018-07-28T15:58:40.871Z,65.77
2018-07-28T16:01:10.979Z,64.84
2018-07-28T16:03:40.642Z,64.12
2018-07-28T16:06:10.221Z,62.43
2018-07-28T16:08:39.448Z,62.53
2018-07-28T16:11:08.778Z,62.90
2018-07-28T16:13:38.443Z,60.98
2018-07-28T16:16:08.184Z,59.07
2018-07-28T16:18:37.787Z,60.29
2018-07-28T16:21:07.012Z,59.18
2018-07-28T16:23:36.308Z,59.78
2018-07-28T16:26:06.559Z,59.17
2018-07-28T16:28:35.805Z,60.09
2018-07-28T16:31:05.119Z,60.00
2018-07-28T16:33:34.635Z,59.88
2018-07-28T16:36:03.972Z,59.52
2018-07-28T16:38:33.199Z,59.56
2018-07-28T16:41:02.503Z,58.93
2018-07-28T16:43:31.737Z,59.50
2018-07-28T16:46:01.020Z,57.27
2018-07-28T16:48:30.618Z,57.28
2018-07-28T16:51:00.012Z,56.93
2018-07-28T16:53:29.293Z,57.35
2018-07-28T16:55:58.621Z,56.86
2018-07-28T16:58:28.200Z,56.08
2018-07-28T17:00:57.468Z,54.86
2018-07-28T17:03:27.907Z,53.69
2018-07-28T17:05:59.585Z,56.61
2018-07-28T17:08:29.892Z,56.04
2018-07-28T17:10:59.278Z,55.48
2018-07-28T17:13:29.159Z,54.71
2018-07-28T17:15:58.762Z,54.39
2018-07-28T17:18:28.472Z,56.60
2018-07-28T17:20:57.752Z,56.45
2018-07-28T17:23:26.986Z,56.12
2018-07-28T17:25:56.242Z,56.51
2018-07-28T17:28:25.581Z,58.33
2018-07-28T17:30:54.945Z,58.25
2018-07-28T17:33:24.659Z,58.29
2018-07-28T17:35:54.569Z,57.94
2018-07-28T17:38:23.846Z,58.60
2018-07-28T17:40:53.229Z,57.82
2018-07-28T17:43:22.564Z,58.10
2018-07-28T17:45:52.191Z,59.42
2018-07-28T17:48:21.479Z,60.47
2018-07-28T17:50:50.734Z,60.06
2018-07-28T17:53:20.032Z,59.07
2018-07-28T17:55:49.667Z,58.45
2018-07-28T17:58:19.261Z,58.64
2018-07-28T18:00:48.503Z,58.40
2018-07-28T18:03:17.732Z,57.64
2018-07-28T18:05:46.963Z,57.81
2018-07-28T18:08:16.256Z,57.21
2018-07-28T18:10:45.514Z,56.69
2018-07-28T18:13:15.362Z,58.02
2018-07-28T18:15:44.904Z,57.92
2018-07-28T18:18:14.205Z,57.68
2018-07-28T18:20:43.441Z,57.93
2018-07-28T18:23:12.871Z,57.98
2018-07-28T18:25:42.388Z,58.27
2018-07-28T18:28:11.938Z,58.60
2018-07-28T18:30:41.669Z,57.78
2018-07-28T18:33:11.110Z,57.57
2018-07-28T18:35:40.443Z,58.54
2018-07-28T18:38:09.736Z,58.28
2018-07-28T18:40:38.983Z,57.65
2018-07-28T18:43:09.267Z,57.59
2018-07-28T18:45:38.589Z,57.80
2018-07-28T18:48:07.887Z,57.22
2018-07-28T18:50:37.601Z,57.33
2018-07-28T18:53:07.535Z,57.03
2018-07-28T18:55:36.849Z,57.84
2018-07-28T18:58:06.543Z,58.10
2018-07-28T19:00:35.916Z,58.88
2018-07-28T19:03:05.617Z,59.00
2018-07-28T19:05:34.883Z,58.86
2018-07-28T19:08:04.793Z,59.63
2018-07-28T19:10:34.117Z,58.14
2018-07-28T19:13:08.730Z,58.54
2018-07-28T19:15:38.108Z,59.39
2018-07-28T19:18:12.944Z,58.21
2018-07-28T19:20:42.203Z,59.02
2018-07-28T19:23:16.743Z,58.83
2018-07-28T19:25:46.153Z,58.17
2018-07-28T19:28:20.675Z,58.55
2018-07-28T19:30:50.288Z,58.95
2018-07-28T19:33:19.603Z,59.55
2018-07-28T19:35:53.977Z,60.15
2018-07-28T19:38:23.258Z,60.76
2018-07-28T19:40:52.996Z,61.45
2018-07-28T19:43:22.253Z,60.19
2018-07-28T19:45:51.579Z,60.52
2018-07-28T19:48:20.983Z,61.72
2018-07-28T19:50:50.216Z,60.30
2018-07-28T19:53:19.524Z,61.18
2018-07-28T19:55:48.796Z,60.80
2018-07-28T19:58:18.331Z,59.42
2018-07-28T20:00:47.874Z,59.32
2018-07-28T20:03:17.151Z,58.58
2018-07-28T20:05:46.814Z,57.95
2018-07-28T20:08:16.123Z,58.25
2018-07-28T20:10:45.972Z,58.81
2018-07-28T20:13:15.451Z,57.87
2018-07-28T20:15:44.787Z,58.43
2018-07-28T20:18:13.875Z,58.60
2018-07-28T20:20:43.209Z,58.29
2018-07-28T20:23:12.609Z,58.25
2018-07-28T20:25:41.879Z,58.04
2018-07-28T20:28:11.019Z,57.79
2018-07-28T20:30:40.663Z,58.48
2018-07-28T20:33:09.852Z,58.10
2018-07-28T20:35:39.343Z,59.31
2018-07-28T20:38:08.627Z,60.03
2018-07-28T20:40:37.943Z,60.76
2018-07-28T20:43:07.269Z,61.80
2018-07-28T20:45:36.571Z,61.96
2018-07-28T20:48:05.919Z,62.56
2018-07-28T20:50:35.466Z,63.87
2018-07-28T20:53:05.131Z,64.85
2018-07-28T20:55:34.378Z,64.63
2018-07-28T20:58:03.649Z,63.73
2018-07-28T21:00:32.922Z,62.17
2018-07-28T21:03:02.196Z,60.56
2018-07-28T21:05:31.491Z,60.09
2018-07-28T21:08:00.755Z,59.97
2018-07-28T21:10:30.006Z,59.43
2018-07-28T21:12:59.494Z,58.23
2018-07-28T21:15:29.077Z,58.88
2018-07-28T21:17:58.375Z,58.49
2018-07-28T21:20:27.696Z,59.03
2018-07-28T21:22:57.285Z,59.73
2018-07-28T21:25:26.583Z,60.09
2018-07-28T21:27:55.923Z,60.40
2018-07-28T21:30:25.259Z,59.65
2018-07-28T21:32:54.499Z,55.46
2018-07-28T21:35:23.824Z,53.93
2018-07-28T21:37:53.387Z,58.13
2018-07-28T21:40:22.649Z,59.63
2018-07-28T21:42:51.880Z,63.80
2018-07-28T21:45:21.099Z,66.06
2018-07-28T21:47:50.372Z,66.49
2018-07-28T21:50:20.512Z,66.96
2018-07-28T21:52:50.249Z,67.41
2018-07-28T21:55:19.870Z,68.62
2018-07-28T21:57:49.589Z,69.39
2018-07-28T22:00:18.854Z,69.95
2018-07-28T22:02:48.181Z,70.09
2018-07-28T22:05:19.710Z,70.40
2018-07-28T22:07:51.111Z,70.66
2018-07-28T22:10:20.457Z,70.38
2018-07-28T22:12:49.759Z,70.19
2018-07-28T22:15:19.010Z,70.21
2018-07-28T22:17:48.299Z,69.44
2018-07-28T22:20:17.647Z,69.20
2018-07-28T22:22:46.960Z,69.43
2018-07-28T22:25:16.210Z,68.83
2018-07-28T22:27:45.482Z,68.56
2018-07-28T22:30:14.745Z,68.73
2018-07-28T22:32:44.033Z,68.91
2018-07-28T22:35:13.610Z,68.86
2018-07-28T22:37:42.917Z,69.39
2018-07-28T22:40:12.191Z,69.45
2018-07-28T22:42:48.504Z,69.26
2018-07-28T22:45:18.583Z,69.96
2018-07-28T22:47:48.171Z,70.55
2018-07-28T22:50:18.210Z,70.17
2018-07-28T22:52:47.445Z,70.11
2018-07-28T22:55:16.767Z,69.87
2018-07-28T22:57:46.362Z,69.64
2018-07-28T23:00:16.172Z,69.74
2018-07-28T23:02:45.436Z,69.90
2018-07-28T23:05:14.666Z,70.21
2018-07-28T23:07:43.996Z,70.08
2018-07-28T23:10:13.568Z,70.29
2018-07-28T23:12:42.831Z,70.40
2018-07-28T23:15:12.062Z,69.90
2018-07-28T23:17:41.831Z,69.57
2018-07-28T23:20:11.357Z,69.98
2018-07-28T23:22:40.641Z,69.22
2018-07-28T23:25:09.893Z,69.41
2018-07-28T23:27:39.169Z,69.60
2018-07-28T23:30:10.771Z,69.68
2018-07-28T23:32:40.323Z,69.32
2018-07-28T23:35:09.940Z,69.60
2018-07-28T23:37:39.960Z,69.54
2018-07-28T23:40:09.398Z,70.17
2018-07-28T23:42:38.617Z,69.87
2018-07-28T23:45:08.539Z,69.66
2018-07-28T23:47:38.244Z,69.54
2018-07-28T23:50:07.500Z,69.11
2018-07-28T23:52:37.087Z,68.99
2018-07-28T23:55:06.660Z,69.45
2018-07-28T23:57:35.964Z,69.83
